sensor_id;sensor_type;location;lat;lon;timestamp;P1;durP1;ratioP1;P2;durP2;ratioP2
26654;SDS011;14278;50.784;4.630;2023-02-15T00:00:54;15.13;;;12.00;;
26654;SDS011;14278;50.784;4.630;2023-02-15T00:03:31;19.97;;;13.57;;
26654;SDS011;14278;50.784;4.630;2023-02-15T00:05:56;13.67;;;10.70;;
26654;SDS011;14278;50.784;4.630;2023-02-15T00:08:22;15.40;;;10.70;;
26654;SDS011;14278;50.784;4.630;2023-02-15T00:10:49;19.70;;;11.40;;
26654;SDS011;14278;50.784;4.630;2023-02-15T00:13:15;21.93;;;11.90;;
26654;SDS011;14278;50.784;4.630;2023-02-15T00:15:41;19.30;;;13.87;;
26654;SDS011;14278;50.784;4.630;2023-02-15T00:18:07;16.37;;;11.37;;
26654;SDS011;14278;50.784;4.630;2023-02-15T00:20:33;17.97;;;12.90;;
26654;SDS011;14278;50.784;4.630;2023-02-15T00:23:00;15.97;;;11.70;;
26654;SDS011;14278;50.784;4.630;2023-02-15T00:25:25;21.07;;;13.10;;
26654;SDS011;14278;50.784;4.630;2023-02-15T00:27:52;16.87;;;12.33;;
26654;SDS011;14278;50.784;4.630;2023-02-15T00:30:18;16.07;;;11.50;;
26654;SDS011;14278;50.784;4.630;2023-02-15T00:32:43;15.33;;;11.63;;
26654;SDS011;14278;50.784;4.630;2023-02-15T00:35:12;13.80;;;10.47;;
26654;SDS011;14278;50.784;4.630;2023-02-15T00:37:38;17.63;;;10.57;;
26654;SDS011;14278;50.784;4.630;2023-02-15T00:40:05;18.40;;;12.97;;
26654;SDS011;14278;50.784;4.630;2023-02-15T00:42:31;19.07;;;11.67;;
26654;SDS011;14278;50.784;4.630;2023-02-15T00:44:57;17.57;;;10.03;;
26654;SDS011;14278;50.784;4.630;2023-02-15T00:47:23;48.67;;;24.97;;
26654;SDS011;14278;50.784;4.630;2023-02-15T00:49:50;34.27;;;22.20;;
26654;SDS011;14278;50.784;4.630;2023-02-15T00:52:16;31.70;;;18.03;;
26654;SDS011;14278;50.784;4.630;2023-02-15T00:54:42;20.70;;;13.13;;
26654;SDS011;14278;50.784;4.630;2023-02-15T00:57:08;23.17;;;12.53;;
26654;SDS011;14278;50.784;4.630;2023-02-15T00:59:34;18.00;;;11.90;;
26654;SDS011;14278;50.784;4.630;2023-02-15T01:02:00;22.53;;;12.33;;
26654;SDS011;14278;50.784;4.630;2023-02-15T01:04:27;21.53;;;13.53;;
26654;SDS011;14278;50.784;4.630;2023-02-15T01:06:53;17.50;;;11.63;;
26654;SDS011;14278;50.784;4.630;2023-02-15T01:09:18;21.87;;;13.27;;
26654;SDS011;14278;50.784;4.630;2023-02-15T01:11:45;16.83;;;11.80;;
26654;SDS011;14278;50.784;4.630;2023-02-15T01:14:10;14.87;;;10.57;;
26654;SDS011;14278;50.784;4.630;2023-02-15T01:16:38;20.27;;;10.60;;
26654;SDS011;14278;50.784;4.630;2023-02-15T01:19:04;18.03;;;11.43;;
26654;SDS011;14278;50.784;4.630;2023-02-15T01:21:30;19.20;;;11.43;;
26654;SDS011;14278;50.784;4.630;2023-02-15T01:23:59;17.77;;;12.33;;
26654;SDS011;14278;50.784;4.630;2023-02-15T01:26:26;23.90;;;13.77;;
26654;SDS011;14278;50.784;4.630;2023-02-15T01:28:52;20.80;;;13.70;;
26654;SDS011;14278;50.784;4.630;2023-02-15T01:31:19;23.93;;;13.47;;
26654;SDS011;14278;50.784;4.630;2023-02-15T01:33:46;18.57;;;12.90;;
26654;SDS011;14278;50.784;4.630;2023-02-15T01:36:13;18.73;;;11.70;;
26654;SDS011;14278;50.784;4.630;2023-02-15T01:38:39;29.27;;;13.13;;
26654;SDS011;14278;50.784;4.630;2023-02-15T01:41:06;16.77;;;12.70;;
26654;SDS011;14278;50.784;4.630;2023-02-15T01:43:49;15.87;;;11.70;;
26654;SDS011;14278;50.784;4.630;2023-02-15T01:46:18;17.73;;;10.90;;
26654;SDS011;14278;50.784;4.630;2023-02-15T01:48:48;14.53;;;11.37;;
26654;SDS011;14278;50.784;4.630;2023-02-15T01:51:19;14.83;;;11.40;;
26654;SDS011;14278;50.784;4.630;2023-02-15T01:56:22;14.70;;;11.00;;
26654;SDS011;14278;50.784;4.630;2023-02-15T01:58:51;15.87;;;11.77;;
26654;SDS011;14278;50.784;4.630;2023-02-15T02:01:21;16.10;;;10.10;;
26654;SDS011;14278;50.784;4.630;2023-02-15T02:06:51;15.93;;;10.13;;
26654;SDS011;14278;50.784;4.630;2023-02-15T02:09:18;13.37;;;9.83;;
26654;SDS011;14278;50.784;4.630;2023-02-15T02:11:44;16.67;;;11.07;;
26654;SDS011;14278;50.784;4.630;2023-02-15T02:14:12;23.17;;;11.23;;
26654;SDS011;14278;50.784;4.630;2023-02-15T02:16:51;14.40;;;10.43;;
26654;SDS011;14278;50.784;4.630;2023-02-15T02:27:40;15.53;;;10.47;;
26654;SDS011;14278;50.784;4.630;2023-02-15T02:33:07;15.00;;;10.10;;
26654;SDS011;14278;50.784;4.630;2023-02-15T02:38:23;14.73;;;10.47;;
26654;SDS011;14278;50.784;4.630;2023-02-15T02:41:07;14.43;;;9.37;;
26654;SDS011;14278;50.784;4.630;2023-02-15T02:46:52;14.27;;;9.67;;
26654;SDS011;14278;50.784;4.630;2023-02-15T02:49:37;18.03;;;10.77;;
26654;SDS011;14278;50.784;4.630;2023-02-15T02:52:06;24.87;;;12.70;;
26654;SDS011;14278;50.784;4.630;2023-02-15T02:54:53;13.67;;;9.40;;
26654;SDS011;14278;50.784;4.630;2023-02-15T02:57:20;11.83;;;9.60;;
26654;SDS011;14278;50.784;4.630;2023-02-15T02:59:49;18.07;;;11.47;;
26654;SDS011;14278;50.784;4.630;2023-02-15T03:02:19;19.90;;;12.33;;
26654;SDS011;14278;50.784;4.630;2023-02-15T03:04:50;17.23;;;11.40;;
26654;SDS011;14278;50.784;4.630;2023-02-15T03:07:23;14.70;;;10.50;;
26654;SDS011;14278;50.784;4.630;2023-02-15T03:09:54;12.50;;;8.53;;
26654;SDS011;14278;50.784;4.630;2023-02-15T03:12:24;15.03;;;8.13;;
26654;SDS011;14278;50.784;4.630;2023-02-15T03:15:19;11.63;;;8.50;;
26654;SDS011;14278;50.784;4.630;2023-02-15T03:17:47;14.33;;;7.83;;
26654;SDS011;14278;50.784;4.630;2023-02-15T03:20:18;17.33;;;10.67;;
26654;SDS011;14278;50.784;4.630;2023-02-15T03:22:59;21.57;;;9.70;;
26654;SDS011;14278;50.784;4.630;2023-02-15T03:25:39;13.23;;;9.43;;
26654;SDS011;14278;50.784;4.630;2023-02-15T03:28:11;25.27;;;11.07;;
26654;SDS011;14278;50.784;4.630;2023-02-15T03:30:42;10.83;;;9.17;;
26654;SDS011;14278;50.784;4.630;2023-02-15T03:33:11;16.40;;;9.43;;
26654;SDS011;14278;50.784;4.630;2023-02-15T03:38:15;12.63;;;9.40;;
26654;SDS011;14278;50.784;4.630;2023-02-15T03:40:45;15.23;;;10.73;;
26654;SDS011;14278;50.784;4.630;2023-02-15T03:46:30;15.03;;;10.77;;
26654;SDS011;14278;50.784;4.630;2023-02-15T03:49:35;23.70;;;11.80;;
26654;SDS011;14278;50.784;4.630;2023-02-15T03:51:56;13.07;;;9.63;;
26654;SDS011;14278;50.784;4.630;2023-02-15T03:54:25;21.97;;;10.63;;
26654;SDS011;14278;50.784;4.630;2023-02-15T04:00:11;15.13;;;9.87;;
26654;SDS011;14278;50.784;4.630;2023-02-15T04:05:50;16.43;;;10.33;;
26654;SDS011;14278;50.784;4.630;2023-02-15T04:08:17;15.10;;;10.20;;
26654;SDS011;14278;50.784;4.630;2023-02-15T04:10:42;16.30;;;11.30;;
26654;SDS011;14278;50.784;4.630;2023-02-15T04:13:24;14.20;;;10.83;;
26654;SDS011;14278;50.784;4.630;2023-02-15T04:15:55;16.90;;;9.33;;
26654;SDS011;14278;50.784;4.630;2023-02-15T04:18:34;15.33;;;10.43;;
26654;SDS011;14278;50.784;4.630;2023-02-15T04:21:24;17.00;;;9.30;;
26654;SDS011;14278;50.784;4.630;2023-02-15T04:24:10;14.63;;;9.13;;
26654;SDS011;14278;50.784;4.630;2023-02-15T04:26:55;12.50;;;9.80;;
26654;SDS011;14278;50.784;4.630;2023-02-15T04:29:22;14.67;;;10.67;;
26654;SDS011;14278;50.784;4.630;2023-02-15T04:31:50;15.07;;;10.77;;
26654;SDS011;14278;50.784;4.630;2023-02-15T04:34:17;12.37;;;10.37;;
26654;SDS011;14278;50.784;4.630;2023-02-15T04:36:43;15.60;;;9.67;;
26654;SDS011;14278;50.784;4.630;2023-02-15T04:39:09;16.93;;;10.73;;
26654;SDS011;14278;50.784;4.630;2023-02-15T04:41:39;13.17;;;10.20;;
26654;SDS011;14278;50.784;4.630;2023-02-15T04:44:05;18.97;;;11.37;;
26654;SDS011;14278;50.784;4.630;2023-02-15T04:46:34;48.60;;;27.23;;
26654;SDS011;14278;50.784;4.630;2023-02-15T04:49:00;46.27;;;29.73;;
26654;SDS011;14278;50.784;4.630;2023-02-15T04:51:26;41.87;;;24.50;;
26654;SDS011;14278;50.784;4.630;2023-02-15T04:53:52;19.80;;;13.27;;
26654;SDS011;14278;50.784;4.630;2023-02-15T04:56:18;25.17;;;11.70;;
26654;SDS011;14278;50.784;4.630;2023-02-15T04:58:45;15.13;;;12.00;;
26654;SDS011;14278;50.784;4.630;2023-02-15T05:01:12;19.50;;;10.97;;
26654;SDS011;14278;50.784;4.630;2023-02-15T05:03:38;13.20;;;9.97;;
26654;SDS011;14278;50.784;4.630;2023-02-15T05:06:04;12.97;;;10.17;;
26654;SDS011;14278;50.784;4.630;2023-02-15T05:08:30;19.70;;;10.83;;
26654;SDS011;14278;50.784;4.630;2023-02-15T05:10:57;13.87;;;11.53;;
26654;SDS011;14278;50.784;4.630;2023-02-15T05:13:23;15.73;;;8.13;;
26654;SDS011;14278;50.784;4.630;2023-02-15T05:15:52;12.20;;;8.70;;
26654;SDS011;14278;50.784;4.630;2023-02-15T05:18:19;19.20;;;10.60;;
26654;SDS011;14278;50.784;4.630;2023-02-15T05:20:46;14.57;;;10.23;;
26654;SDS011;14278;50.784;4.630;2023-02-15T05:23:13;17.07;;;9.10;;
26654;SDS011;14278;50.784;4.630;2023-02-15T05:25:39;10.43;;;7.60;;
26654;SDS011;14278;50.784;4.630;2023-02-15T05:28:24;12.60;;;8.13;;
26654;SDS011;14278;50.784;4.630;2023-02-15T05:31:08;15.67;;;9.60;;
26654;SDS011;14278;50.784;4.630;2023-02-15T05:33:37;10.53;;;9.27;;
26654;SDS011;14278;50.784;4.630;2023-02-15T05:36:04;26.63;;;9.73;;
26654;SDS011;14278;50.784;4.630;2023-02-15T05:38:30;13.83;;;10.10;;
26654;SDS011;14278;50.784;4.630;2023-02-15T05:40:56;12.50;;;9.57;;
26654;SDS011;14278;50.784;4.630;2023-02-15T05:43:23;15.50;;;9.53;;
26654;SDS011;14278;50.784;4.630;2023-02-15T05:45:53;16.53;;;9.43;;
26654;SDS011;14278;50.784;4.630;2023-02-15T05:48:21;14.37;;;7.63;;
26654;SDS011;14278;50.784;4.630;2023-02-15T05:51:07;17.73;;;9.33;;
26654;SDS011;14278;50.784;4.630;2023-02-15T05:53:38;13.37;;;9.53;;
26654;SDS011;14278;50.784;4.630;2023-02-15T05:56:06;13.60;;;8.13;;
26654;SDS011;14278;50.784;4.630;2023-02-15T05:58:34;10.57;;;8.63;;
26654;SDS011;14278;50.784;4.630;2023-02-15T06:01:16;9.93;;;8.57;;
26654;SDS011;14278;50.784;4.630;2023-02-15T06:03:44;11.90;;;9.23;;
26654;SDS011;14278;50.784;4.630;2023-02-15T06:06:10;15.33;;;10.13;;
26654;SDS011;14278;50.784;4.630;2023-02-15T06:08:37;11.03;;;8.77;;
26654;SDS011;14278;50.784;4.630;2023-02-15T06:11:04;12.03;;;8.20;;
26654;SDS011;14278;50.784;4.630;2023-02-15T06:13:31;14.13;;;8.80;;
26654;SDS011;14278;50.784;4.630;2023-02-15T06:15:58;9.80;;;8.50;;
26654;SDS011;14278;50.784;4.630;2023-02-15T06:18:24;14.07;;;9.00;;
26654;SDS011;14278;50.784;4.630;2023-02-15T06:20:51;13.40;;;9.87;;
26654;SDS011;14278;50.784;4.630;2023-02-15T06:23:20;14.77;;;10.43;;
26654;SDS011;14278;50.784;4.630;2023-02-15T06:25:47;18.53;;;9.87;;
26654;SDS011;14278;50.784;4.630;2023-02-15T06:28:13;13.50;;;9.43;;
26654;SDS011;14278;50.784;4.630;2023-02-15T06:30:39;10.30;;;8.23;;
26654;SDS011;14278;50.784;4.630;2023-02-15T06:33:05;12.47;;;8.93;;
26654;SDS011;14278;50.784;4.630;2023-02-15T06:35:31;16.50;;;7.77;;
26654;SDS011;14278;50.784;4.630;2023-02-15T06:37:58;11.63;;;9.27;;
26654;SDS011;14278;50.784;4.630;2023-02-15T06:40:23;17.13;;;9.70;;
26654;SDS011;14278;50.784;4.630;2023-02-15T06:42:49;23.53;;;9.47;;
26654;SDS011;14278;50.784;4.630;2023-02-15T06:45:16;12.33;;;8.87;;
26654;SDS011;14278;50.784;4.630;2023-02-15T06:47:42;12.63;;;8.07;;
26654;SDS011;14278;50.784;4.630;2023-02-15T06:50:08;13.57;;;9.60;;
26654;SDS011;14278;50.784;4.630;2023-02-15T06:52:35;14.37;;;9.60;;
26654;SDS011;14278;50.784;4.630;2023-02-15T06:55:01;13.97;;;9.47;;
26654;SDS011;14278;50.784;4.630;2023-02-15T06:57:28;10.83;;;8.93;;
26654;SDS011;14278;50.784;4.630;2023-02-15T06:59:53;15.70;;;7.70;;
26654;SDS011;14278;50.784;4.630;2023-02-15T07:02:20;14.47;;;8.93;;
26654;SDS011;14278;50.784;4.630;2023-02-15T07:04:46;11.67;;;8.90;;
26654;SDS011;14278;50.784;4.630;2023-02-15T07:07:11;13.20;;;8.63;;
26654;SDS011;14278;50.784;4.630;2023-02-15T07:09:38;12.80;;;7.93;;
26654;SDS011;14278;50.784;4.630;2023-02-15T07:12:04;8.93;;;7.87;;
26654;SDS011;14278;50.784;4.630;2023-02-15T07:14:50;11.07;;;8.37;;
26654;SDS011;14278;50.784;4.630;2023-02-15T07:17:16;14.63;;;10.17;;
26654;SDS011;14278;50.784;4.630;2023-02-15T07:19:42;10.87;;;8.47;;
26654;SDS011;14278;50.784;4.630;2023-02-15T07:22:09;18.17;;;8.93;;
26654;SDS011;14278;50.784;4.630;2023-02-15T07:24:35;17.23;;;10.57;;
26654;SDS011;14278;50.784;4.630;2023-02-15T07:27:01;13.87;;;8.63;;
26654;SDS011;14278;50.784;4.630;2023-02-15T07:29:27;24.17;;;11.60;;
26654;SDS011;14278;50.784;4.630;2023-02-15T07:31:52;16.03;;;9.43;;
26654;SDS011;14278;50.784;4.630;2023-02-15T07:34:19;17.43;;;10.03;;
26654;SDS011;14278;50.784;4.630;2023-02-15T07:36:45;15.57;;;10.20;;
26654;SDS011;14278;50.784;4.630;2023-02-15T07:39:11;13.23;;;9.80;;
26654;SDS011;14278;50.784;4.630;2023-02-15T07:41:37;16.80;;;10.47;;
26654;SDS011;14278;50.784;4.630;2023-02-15T07:44:03;23.97;;;12.77;;
26654;SDS011;14278;50.784;4.630;2023-02-15T07:46:29;17.33;;;10.87;;
26654;SDS011;14278;50.784;4.630;2023-02-15T07:48:55;16.73;;;10.97;;
26654;SDS011;14278;50.784;4.630;2023-02-15T07:51:21;15.67;;;10.73;;
26654;SDS011;14278;50.784;4.630;2023-02-15T07:53:47;16.47;;;10.63;;
26654;SDS011;14278;50.784;4.630;2023-02-15T07:56:14;23.03;;;11.30;;
26654;SDS011;14278;50.784;4.630;2023-02-15T07:58:41;16.47;;;12.27;;
26654;SDS011;14278;50.784;4.630;2023-02-15T08:01:15;19.03;;;11.63;;
26654;SDS011;14278;50.784;4.630;2023-02-15T08:03:45;16.20;;;11.53;;
26654;SDS011;14278;50.784;4.630;2023-02-15T08:06:11;17.63;;;11.27;;
26654;SDS011;14278;50.784;4.630;2023-02-15T08:08:38;19.83;;;12.10;;
26654;SDS011;14278;50.784;4.630;2023-02-15T08:11:15;19.40;;;10.70;;
26654;SDS011;14278;50.784;4.630;2023-02-15T08:14:08;14.40;;;11.17;;
26654;SDS011;14278;50.784;4.630;2023-02-15T08:19:12;16.50;;;9.27;;
26654;SDS011;14278;50.784;4.630;2023-02-15T08:21:44;11.97;;;9.30;;
26654;SDS011;14278;50.784;4.630;2023-02-15T08:24:12;15.17;;;10.00;;
26654;SDS011;14278;50.784;4.630;2023-02-15T08:26:40;18.30;;;10.73;;
26654;SDS011;14278;50.784;4.630;2023-02-15T08:29:07;13.80;;;10.97;;
26654;SDS011;14278;50.784;4.630;2023-02-15T08:31:34;10.30;;;8.37;;
26654;SDS011;14278;50.784;4.630;2023-02-15T08:34:02;20.63;;;10.13;;
26654;SDS011;14278;50.784;4.630;2023-02-15T08:36:29;17.03;;;12.03;;
26654;SDS011;14278;50.784;4.630;2023-02-15T08:39:00;19.50;;;12.30;;
26654;SDS011;14278;50.784;4.630;2023-02-15T08:41:29;14.63;;;10.97;;
26654;SDS011;14278;50.784;4.630;2023-02-15T08:43:57;14.03;;;11.80;;
26654;SDS011;14278;50.784;4.630;2023-02-15T08:46:25;13.47;;;10.40;;
26654;SDS011;14278;50.784;4.630;2023-02-15T08:48:53;20.37;;;11.87;;
26654;SDS011;14278;50.784;4.630;2023-02-15T08:51:20;15.53;;;11.23;;
26654;SDS011;14278;50.784;4.630;2023-02-15T08:53:49;15.07;;;11.27;;
26654;SDS011;14278;50.784;4.630;2023-02-15T08:56:17;16.47;;;11.47;;
26654;SDS011;14278;50.784;4.630;2023-02-15T08:58:45;16.30;;;11.47;;
26654;SDS011;14278;50.784;4.630;2023-02-15T09:01:12;22.13;;;12.90;;
26654;SDS011;14278;50.784;4.630;2023-02-15T09:03:43;22.53;;;12.70;;
26654;SDS011;14278;50.784;4.630;2023-02-15T09:06:10;18.40;;;12.87;;
26654;SDS011;14278;50.784;4.630;2023-02-15T09:08:37;15.23;;;11.80;;
26654;SDS011;14278;50.784;4.630;2023-02-15T09:11:10;19.93;;;13.43;;
26654;SDS011;14278;50.784;4.630;2023-02-15T09:13:38;19.27;;;12.57;;
26654;SDS011;14278;50.784;4.630;2023-02-15T09:16:06;16.53;;;12.53;;
26654;SDS011;14278;50.784;4.630;2023-02-15T09:18:34;23.20;;;12.60;;
26654;SDS011;14278;50.784;4.630;2023-02-15T09:21:06;17.63;;;11.87;;
26654;SDS011;14278;50.784;4.630;2023-02-15T09:23:33;23.13;;;13.67;;
26654;SDS011;14278;50.784;4.630;2023-02-15T09:26:04;20.03;;;14.10;;
26654;SDS011;14278;50.784;4.630;2023-02-15T09:28:32;16.23;;;11.60;;
26654;SDS011;14278;50.784;4.630;2023-02-15T09:31:09;21.37;;;13.63;;
26654;SDS011;14278;50.784;4.630;2023-02-15T09:33:41;16.97;;;10.93;;
26654;SDS011;14278;50.784;4.630;2023-02-15T09:36:22;21.07;;;13.07;;
26654;SDS011;14278;50.784;4.630;2023-02-15T09:38:56;15.83;;;11.00;;
26654;SDS011;14278;50.784;4.630;2023-02-15T09:49:48;14.87;;;12.37;;
26654;SDS011;14278;50.784;4.630;2023-02-15T09:55:05;18.30;;;10.67;;
26654;SDS011;14278;50.784;4.630;2023-02-15T10:00:31;14.97;;;11.73;;
26654;SDS011;14278;50.784;4.630;2023-02-15T10:03:18;14.83;;;9.40;;
26654;SDS011;14278;50.784;4.630;2023-02-15T10:11:23;12.60;;;11.00;;
26654;SDS011;14278;50.784;4.630;2023-02-15T10:14:26;12.80;;;10.07;;
26654;SDS011;14278;50.784;4.630;2023-02-15T10:28:05;15.00;;;10.17;;
26654;SDS011;14278;50.784;4.630;2023-02-15T10:30:50;14.03;;;9.40;;
26654;SDS011;14278;50.784;4.630;2023-02-15T10:33:36;14.53;;;8.93;;
26654;SDS011;14278;50.784;4.630;2023-02-15T10:36:08;11.17;;;8.57;;
26654;SDS011;14278;50.784;4.630;2023-02-15T10:39:12;12.77;;;8.77;;
26654;SDS011;14278;50.784;4.630;2023-02-15T10:50:27;9.37;;;7.03;;
26654;SDS011;14278;50.784;4.630;2023-02-15T10:56:05;12.47;;;8.73;;
26654;SDS011;14278;50.784;4.630;2023-02-15T11:01:49;18.57;;;8.73;;
26654;SDS011;14278;50.784;4.630;2023-02-15T11:06:55;14.37;;;8.10;;
26654;SDS011;14278;50.784;4.630;2023-02-15T11:09:25;13.63;;;8.10;;
26654;SDS011;14278;50.784;4.630;2023-02-15T11:11:59;10.93;;;7.57;;
26654;SDS011;14278;50.784;4.630;2023-02-15T11:17:15;13.07;;;9.07;;
26654;SDS011;14278;50.784;4.630;2023-02-15T11:22:30;8.17;;;7.23;;
26654;SDS011;14278;50.784;4.630;2023-02-15T11:24:58;11.13;;;7.70;;
26654;SDS011;14278;50.784;4.630;2023-02-15T11:27:28;14.80;;;8.37;;
26654;SDS011;14278;50.784;4.630;2023-02-15T11:29:59;11.47;;;7.73;;
26654;SDS011;14278;50.784;4.630;2023-02-15T11:32:30;14.50;;;8.30;;
26654;SDS011;14278;50.784;4.630;2023-02-15T11:35:10;19.27;;;8.93;;
26654;SDS011;14278;50.784;4.630;2023-02-15T11:37:43;11.57;;;8.30;;
26654;SDS011;14278;50.784;4.630;2023-02-15T11:40:46;12.93;;;8.47;;
26654;SDS011;14278;50.784;4.630;2023-02-15T11:43:16;23.63;;;8.23;;
26654;SDS011;14278;50.784;4.630;2023-02-15T11:46:02;15.70;;;9.40;;
26654;SDS011;14278;50.784;4.630;2023-02-15T11:48:29;13.80;;;8.37;;
26654;SDS011;14278;50.784;4.630;2023-02-15T11:50:57;9.90;;;7.60;;
26654;SDS011;14278;50.784;4.630;2023-02-15T11:53:23;13.90;;;9.03;;
26654;SDS011;14278;50.784;4.630;2023-02-15T11:55:52;18.50;;;9.57;;
26654;SDS011;14278;50.784;4.630;2023-02-15T11:58:27;13.97;;;8.90;;
26654;SDS011;14278;50.784;4.630;2023-02-15T12:01:16;12.87;;;8.40;;
26654;SDS011;14278;50.784;4.630;2023-02-15T12:04:17;11.47;;;7.90;;
26654;SDS011;14278;50.784;4.630;2023-02-15T12:06:48;13.97;;;8.60;;
26654;SDS011;14278;50.784;4.630;2023-02-15T12:12:20;18.33;;;9.13;;
26654;SDS011;14278;50.784;4.630;2023-02-15T12:14:54;21.73;;;9.23;;
26654;SDS011;14278;50.784;4.630;2023-02-15T12:17:24;11.50;;;7.83;;
26654;SDS011;14278;50.784;4.630;2023-02-15T12:19:57;13.70;;;9.00;;
26654;SDS011;14278;50.784;4.630;2023-02-15T12:25:00;17.70;;;8.00;;
26654;SDS011;14278;50.784;4.630;2023-02-15T12:27:46;18.10;;;9.30;;
26654;SDS011;14278;50.784;4.630;2023-02-15T12:30:18;13.03;;;8.20;;
26654;SDS011;14278;50.784;4.630;2023-02-15T12:32:59;15.67;;;8.83;;
26654;SDS011;14278;50.784;4.630;2023-02-15T12:35:42;14.23;;;9.37;;
26654;SDS011;14278;50.784;4.630;2023-02-15T12:40:35;15.00;;;8.90;;
26654;SDS011;14278;50.784;4.630;2023-02-15T12:43:01;11.97;;;8.23;;
26654;SDS011;14278;50.784;4.630;2023-02-15T12:45:34;12.67;;;7.73;;
26654;SDS011;14278;50.784;4.630;2023-02-15T12:48:18;14.73;;;8.87;;
26654;SDS011;14278;50.784;4.630;2023-02-15T12:50:46;19.63;;;8.93;;
26654;SDS011;14278;50.784;4.630;2023-02-15T12:53:17;14.57;;;8.93;;
26654;SDS011;14278;50.784;4.630;2023-02-15T12:55:51;12.67;;;8.50;;
26654;SDS011;14278;50.784;4.630;2023-02-15T12:58:29;14.50;;;9.00;;
26654;SDS011;14278;50.784;4.630;2023-02-15T13:03:35;13.80;;;7.97;;
26654;SDS011;14278;50.784;4.630;2023-02-15T13:06:04;13.40;;;8.83;;
26654;SDS011;14278;50.784;4.630;2023-02-15T13:08:35;15.77;;;8.50;;
26654;SDS011;14278;50.784;4.630;2023-02-15T13:11:10;16.20;;;8.47;;
26654;SDS011;14278;50.784;4.630;2023-02-15T13:16:38;18.17;;;10.57;;
26654;SDS011;14278;50.784;4.630;2023-02-15T13:19:10;14.10;;;9.00;;
26654;SDS011;14278;50.784;4.630;2023-02-15T13:22:08;15.07;;;9.47;;
26654;SDS011;14278;50.784;4.630;2023-02-15T13:24:43;21.13;;;9.87;;
26654;SDS011;14278;50.784;4.630;2023-02-15T13:27:17;11.07;;;8.73;;
26654;SDS011;14278;50.784;4.630;2023-02-15T13:29:52;11.13;;;8.43;;
26654;SDS011;14278;50.784;4.630;2023-02-15T13:32:28;15.27;;;9.43;;
26654;SDS011;14278;50.784;4.630;2023-02-15T13:34:58;11.53;;;8.30;;
26654;SDS011;14278;50.784;4.630;2023-02-15T13:37:40;12.33;;;8.60;;
26654;SDS011;14278;50.784;4.630;2023-02-15T13:43:16;11.10;;;8.13;;
26654;SDS011;14278;50.784;4.630;2023-02-15T13:49:14;12.17;;;8.77;;
26654;SDS011;14278;50.784;4.630;2023-02-15T13:52:35;15.30;;;10.03;;
26654;SDS011;14278;50.784;4.630;2023-02-15T13:57:49;12.10;;;9.57;;
26654;SDS011;14278;50.784;4.630;2023-02-15T14:06:11;19.27;;;10.17;;
26654;SDS011;14278;50.784;4.630;2023-02-15T14:08:43;12.40;;;9.10;;
26654;SDS011;14278;50.784;4.630;2023-02-15T14:19:43;13.47;;;9.20;;
26654;SDS011;14278;50.784;4.630;2023-02-15T14:24:50;12.60;;;9.27;;
26654;SDS011;14278;50.784;4.630;2023-02-15T14:30:34;14.20;;;9.30;;
26654;SDS011;14278;50.784;4.630;2023-02-15T14:33:08;15.00;;;9.00;;
26654;SDS011;14278;50.784;4.630;2023-02-15T14:35:50;24.63;;;12.47;;
26654;SDS011;14278;50.784;4.630;2023-02-15T14:41:21;15.73;;;10.10;;
26654;SDS011;14278;50.784;4.630;2023-02-15T14:44:10;16.00;;;10.17;;
26654;SDS011;14278;50.784;4.630;2023-02-15T14:46:59;15.10;;;9.23;;
26654;SDS011;14278;50.784;4.630;2023-02-15T14:49:30;16.57;;;10.03;;
26654;SDS011;14278;50.784;4.630;2023-02-15T14:52:06;12.63;;;9.23;;
26654;SDS011;14278;50.784;4.630;2023-02-15T14:59:26;18.03;;;10.37;;
26654;SDS011;14278;50.784;4.630;2023-02-15T15:05:32;13.37;;;9.47;;
26654;SDS011;14278;50.784;4.630;2023-02-15T15:08:00;12.23;;;8.87;;
26654;SDS011;14278;50.784;4.630;2023-02-15T15:10:42;11.03;;;8.63;;
26654;SDS011;14278;50.784;4.630;2023-02-15T15:18:54;12.93;;;9.70;;
26654;SDS011;14278;50.784;4.630;2023-02-15T15:46:42;14.70;;;8.93;;
26654;SDS011;14278;50.784;4.630;2023-02-15T15:49:20;12.83;;;9.10;;
26654;SDS011;14278;50.784;4.630;2023-02-15T15:51:49;15.53;;;9.03;;
26654;SDS011;14278;50.784;4.630;2023-02-15T15:54:17;13.63;;;9.53;;
26654;SDS011;14278;50.784;4.630;2023-02-15T15:56:58;12.37;;;9.63;;
26654;SDS011;14278;50.784;4.630;2023-02-15T15:59:31;16.63;;;10.60;;
26654;SDS011;14278;50.784;4.630;2023-02-15T16:02:17;11.10;;;8.97;;
26654;SDS011;14278;50.784;4.630;2023-02-15T16:04:43;17.00;;;10.50;;
26654;SDS011;14278;50.784;4.630;2023-02-15T16:09:59;15.77;;;11.63;;
26654;SDS011;14278;50.784;4.630;2023-02-15T16:12:29;15.17;;;10.17;;
26654;SDS011;14278;50.784;4.630;2023-02-15T16:14:57;13.50;;;10.73;;
26654;SDS011;14278;50.784;4.630;2023-02-15T16:17:30;15.63;;;11.20;;
26654;SDS011;14278;50.784;4.630;2023-02-15T16:20:01;13.93;;;10.37;;
26654;SDS011;14278;50.784;4.630;2023-02-15T16:22:33;13.60;;;10.17;;
26654;SDS011;14278;50.784;4.630;2023-02-15T16:27:45;15.83;;;10.90;;
26654;SDS011;14278;50.784;4.630;2023-02-15T16:30:17;14.37;;;10.77;;
26654;SDS011;14278;50.784;4.630;2023-02-15T16:32:43;14.03;;;10.43;;
26654;SDS011;14278;50.784;4.630;2023-02-15T16:35:12;17.53;;;11.90;;
26654;SDS011;14278;50.784;4.630;2023-02-15T16:37:41;17.27;;;10.30;;
26654;SDS011;14278;50.784;4.630;2023-02-15T16:42:50;17.77;;;12.10;;
26654;SDS011;14278;50.784;4.630;2023-02-15T16:45:19;18.60;;;11.83;;
26654;SDS011;14278;50.784;4.630;2023-02-15T16:47:50;15.43;;;11.10;;
26654;SDS011;14278;50.784;4.630;2023-02-15T16:50:20;21.90;;;10.97;;
26654;SDS011;14278;50.784;4.630;2023-02-15T16:52:50;18.07;;;10.47;;
26654;SDS011;14278;50.784;4.630;2023-02-15T16:55:25;14.27;;;11.13;;
26654;SDS011;14278;50.784;4.630;2023-02-15T16:58:02;13.57;;;10.50;;
26654;SDS011;14278;50.784;4.630;2023-02-15T17:00:32;15.50;;;10.97;;
26654;SDS011;14278;50.784;4.630;2023-02-15T17:03:02;16.60;;;11.17;;
26654;SDS011;14278;50.784;4.630;2023-02-15T17:05:40;21.63;;;11.40;;
26654;SDS011;14278;50.784;4.630;2023-02-15T17:11:00;15.77;;;10.47;;
26654;SDS011;14278;50.784;4.630;2023-02-15T17:13:31;13.63;;;10.50;;
26654;SDS011;14278;50.784;4.630;2023-02-15T17:18:24;17.80;;;12.00;;
26654;SDS011;14278;50.784;4.630;2023-02-15T17:21:12;14.80;;;11.60;;
26654;SDS011;14278;50.784;4.630;2023-02-15T17:23:42;16.63;;;11.90;;
26654;SDS011;14278;50.784;4.630;2023-02-15T17:26:12;21.83;;;13.43;;
26654;SDS011;14278;50.784;4.630;2023-02-15T17:28:50;20.53;;;12.63;;
26654;SDS011;14278;50.784;4.630;2023-02-15T17:31:24;14.53;;;11.33;;
26654;SDS011;14278;50.784;4.630;2023-02-15T17:33:56;20.70;;;12.23;;
26654;SDS011;14278;50.784;4.630;2023-02-15T17:36:24;19.60;;;13.20;;
26654;SDS011;14278;50.784;4.630;2023-02-15T17:41:43;12.33;;;10.87;;
26654;SDS011;14278;50.784;4.630;2023-02-15T17:44:09;16.93;;;12.60;;
26654;SDS011;14278;50.784;4.630;2023-02-15T17:46:39;22.67;;;13.50;;
26654;SDS011;14278;50.784;4.630;2023-02-15T17:49:05;19.73;;;14.00;;
26654;SDS011;14278;50.784;4.630;2023-02-15T17:51:32;17.23;;;12.13;;
26654;SDS011;14278;50.784;4.630;2023-02-15T17:54:00;18.57;;;13.27;;
26654;SDS011;14278;50.784;4.630;2023-02-15T17:56:45;23.60;;;13.27;;
26654;SDS011;14278;50.784;4.630;2023-02-15T17:59:12;25.50;;;12.47;;
26654;SDS011;14278;50.784;4.630;2023-02-15T18:01:46;22.17;;;13.63;;
26654;SDS011;14278;50.784;4.630;2023-02-15T18:04:32;20.80;;;13.80;;